sensor_id;sensor_type;location;lat;lon;timestamp;pressure;altitude;pressure_sealevel;temperature;humidity
55916;BME280;41826;53.246;-6.670;2023-04-08T00:00:32;100557.91;;;5.81;100.00
55916;BME280;41826;53.246;-6.670;2023-04-08T00:02:58;100564.72;;;5.49;100.00
55916;BME280;41826;53.246;-6.670;2023-04-08T00:05:23;100593.00;;;5.42;100.00
55916;BME280;41826;53.246;-6.670;2023-04-08T00:07:52;100660.16;;;5.37;100.00
55916;BME280;41826;53.246;-6.670;2023-04-08T00:10:18;100676.16;;;5.68;100.00
55916;BME280;41826;53.246;-6.670;2023-04-08T00:12:44;100666.25;;;5.73;100.00
55916;BME280;41826;53.246;-6.670;2023-04-08T00:15:10;100681.53;;;5.53;100.00
55916;BME280;41826;53.246;-6.670;2023-04-08T00:17:35;100690.63;;;5.48;100.00
55916;BME280;41826;53.246;-6.670;2023-04-08T00:20:01;100711.22;;;5.51;100.00
55916;BME280;41826;53.246;-6.670;2023-04-08T00:22:26;100721.66;;;5.51;100.00
55916;BME280;41826;53.246;-6.670;2023-04-08T00:24:52;100725.16;;;5.62;100.00
55916;BME280;41826;53.246;-6.670;2023-04-08T00:27:17;100727.56;;;5.77;100.00
55916;BME280;41826;53.246;-6.670;2023-04-08T00:29:42;100704.47;;;5.96;100.00
55916;BME280;41826;53.246;-6.670;2023-04-08T00:32:08;100696.09;;;5.80;100.00
55916;BME280;41826;53.246;-6.670;2023-04-08T00:34:33;100712.72;;;5.90;100.00
55916;BME280;41826;53.246;-6.670;2023-04-08T00:36:59;100714.16;;;5.94;100.00
55916;BME280;41826;53.246;-6.670;2023-04-08T00:39:25;100750.91;;;5.78;100.00
55916;BME280;41826;53.246;-6.670;2023-04-08T00:41:50;100770.69;;;5.81;100.00
55916;BME280;41826;53.246;-6.670;2023-04-08T00:44:15;100874.72;;;5.58;100.00
55916;BME280;41826;53.246;-6.670;2023-04-08T00:46:41;100935.31;;;5.86;100.00
55916;BME280;41826;53.246;-6.670;2023-04-08T00:49:07;100945.25;;;5.94;100.00
55916;BME280;41826;53.246;-6.670;2023-04-08T00:51:33;100968.88;;;5.91;100.00
55916;BME280;41826;53.246;-6.670;2023-04-08T00:54:01;100989.53;;;5.94;100.00
55916;BME280;41826;53.246;-6.670;2023-04-08T00:56:28;101020.34;;;5.87;100.00
55916;BME280;41826;53.246;-6.670;2023-04-08T00:58:55;101034.56;;;5.96;100.00
55916;BME280;41826;53.246;-6.670;2023-04-08T01:06:52;101616.06;;;6.04;100.00
55916;BME280;41826;53.246;-6.670;2023-04-08T01:09:24;101661.22;;;6.04;100.00
55916;BME280;41826;53.246;-6.670;2023-04-08T01:11:52;101665.91;;;6.14;100.00
55916;BME280;41826;53.246;-6.670;2023-04-08T01:14:25;101664.22;;;6.27;100.00
55916;BME280;41826;53.246;-6.670;2023-04-08T01:16:54;101617.31;;;6.41;100.00
55916;BME280;41826;53.246;-6.670;2023-04-08T01:19:33;101610.97;;;6.31;100.00
55916;BME280;41826;53.246;-6.670;2023-04-08T01:22:28;101654.81;;;6.24;100.00
55916;BME280;41826;53.246;-6.670;2023-04-08T01:25:02;101698.25;;;6.25;100.00
55916;BME280;41826;53.246;-6.670;2023-04-08T01:27:30;101733.81;;;6.26;100.00
55916;BME280;41826;53.246;-6.670;2023-04-08T01:29:57;101763.50;;;6.24;100.00
55916;BME280;41826;53.246;-6.670;2023-04-08T01:32:24;101781.50;;;6.28;100.00
55916;BME280;41826;53.246;-6.670;2023-04-08T01:34:52;101807.56;;;6.28;100.00
55916;BME280;41826;53.246;-6.670;2023-04-08T01:37:22;101840.00;;;6.08;100.00
55916;BME280;41826;53.246;-6.670;2023-04-08T01:39:53;101877.06;;;6.14;100.00
55916;BME280;41826;53.246;-6.670;2023-04-08T01:42:24;101891.19;;;6.10;100.00
55916;BME280;41826;53.246;-6.670;2023-04-08T01:44:56;101933.72;;;6.10;100.00
55916;BME280;41826;53.246;-6.670;2023-04-08T01:47:22;101938.69;;;6.15;100.00
55916;BME280;41826;53.246;-6.670;2023-04-08T01:49:50;101937.03;;;6.14;100.00
55916;BME280;41826;53.246;-6.670;2023-04-08T01:52:17;101954.88;;;6.05;100.00
55916;BME280;41826;53.246;-6.670;2023-04-08T01:54:44;101984.53;;;6.03;100.00
55916;BME280;41826;53.246;-6.670;2023-04-08T01:57:16;102011.44;;;6.03;100.00
55916;BME280;41826;53.246;-6.670;2023-04-08T01:59:47;102031.97;;;6.10;100.00
55916;BME280;41826;53.246;-6.670;2023-04-08T02:02:16;102029.66;;;6.21;100.00
55916;BME280;41826;53.246;-6.670;2023-04-08T02:04:44;102024.19;;;6.25;100.00
55916;BME280;41826;53.246;-6.670;2023-04-08T02:07:10;102012.63;;;6.14;100.00
55916;BME280;41826;53.246;-6.670;2023-04-08T02:09:36;101999.91;;;6.07;100.00
55916;BME280;41826;53.246;-6.670;2023-04-08T02:12:01;102013.13;;;6.04;100.00
55916;BME280;41826;53.246;-6.670;2023-04-08T02:14:27;102027.75;;;6.07;100.00
55916;BME280;41826;53.246;-6.670;2023-04-08T02:16:57;102025.56;;;5.99;100.00
55916;BME280;41826;53.246;-6.670;2023-04-08T02:22:52;101973.94;;;6.22;100.00
55916;BME280;41826;53.246;-6.670;2023-04-08T02:25:14;101982.59;;;6.06;100.00
55916;BME280;41826;53.246;-6.670;2023-04-08T02:27:41;101994.28;;;5.99;100.00
55916;BME280;41826;53.246;-6.670;2023-04-08T02:30:09;102000.69;;;6.10;100.00
55916;BME280;41826;53.246;-6.670;2023-04-08T02:32:36;102002.94;;;6.00;100.00
55916;BME280;41826;53.246;-6.670;2023-04-08T02:35:03;101971.66;;;6.00;100.00
55916;BME280;41826;53.246;-6.670;2023-04-08T02:37:30;101986.63;;;5.96;100.00
55916;BME280;41826;53.246;-6.670;2023-04-08T02:39:55;101985.72;;;6.13;100.00
55916;BME280;41826;53.246;-6.670;2023-04-08T02:42:21;101949.97;;;5.99;100.00
55916;BME280;41826;53.246;-6.670;2023-04-08T02:44:47;101949.19;;;5.97;100.00
55916;BME280;41826;53.246;-6.670;2023-04-08T02:47:13;101943.25;;;6.11;100.00
55916;BME280;41826;53.246;-6.670;2023-04-08T02:49:38;101941.84;;;6.05;100.00
55916;BME280;41826;53.246;-6.670;2023-04-08T02:52:04;101898.94;;;6.11;100.00
55916;BME280;41826;53.246;-6.670;2023-04-08T02:54:29;101889.69;;;6.05;100.00
55916;BME280;41826;53.246;-6.670;2023-04-08T02:56:55;101872.75;;;6.13;100.00
55916;BME280;41826;53.246;-6.670;2023-04-08T02:59:21;101855.03;;;6.03;100.00
55916;BME280;41826;53.246;-6.670;2023-04-08T03:01:46;101853.94;;;6.07;100.00
55916;BME280;41826;53.246;-6.670;2023-04-08T03:04:11;101837.38;;;6.08;100.00
55916;BME280;41826;53.246;-6.670;2023-04-08T03:06:37;101814.25;;;6.18;100.00
55916;BME280;41826;53.246;-6.670;2023-04-08T03:09:03;101794.16;;;6.20;100.00
55916;BME280;41826;53.246;-6.670;2023-04-08T03:11:30;101753.00;;;6.25;100.00
55916;BME280;41826;53.246;-6.670;2023-04-08T03:13:55;101755.19;;;6.17;100.00
55916;BME280;41826;53.246;-6.670;2023-04-08T03:16:21;101732.56;;;6.18;100.00
55916;BME280;41826;53.246;-6.670;2023-04-08T03:18:46;101729.75;;;6.06;100.00
55916;BME280;41826;53.246;-6.670;2023-04-08T03:21:13;101719.81;;;6.27;100.00
55916;BME280;41826;53.246;-6.670;2023-04-08T03:23:38;101692.00;;;6.28;100.00
55916;BME280;41826;53.246;-6.670;2023-04-08T03:26:04;101684.44;;;6.23;100.00
55916;BME280;41826;53.246;-6.670;2023-04-08T03:28:29;101673.00;;;6.26;100.00
55916;BME280;41826;53.246;-6.670;2023-04-08T03:30:55;101701.88;;;6.23;100.00
55916;BME280;41826;53.246;-6.670;2023-04-08T03:33:20;101748.56;;;6.12;100.00
55916;BME280;41826;53.246;-6.670;2023-04-08T03:35:46;101800.44;;;6.16;100.00
55916;BME280;41826;53.246;-6.670;2023-04-08T03:38:11;101832.94;;;6.11;100.00
55916;BME280;41826;53.246;-6.670;2023-04-08T03:40:36;101855.09;;;6.18;100.00
55916;BME280;41826;53.246;-6.670;2023-04-08T03:43:02;101875.81;;;6.21;100.00
55916;BME280;41826;53.246;-6.670;2023-04-08T03:45:27;101903.53;;;6.22;100.00
55916;BME280;41826;53.246;-6.670;2023-04-08T03:47:53;101905.31;;;6.21;100.00
55916;BME280;41826;53.246;-6.670;2023-04-08T03:50:18;101935.19;;;6.16;100.00
55916;BME280;41826;53.246;-6.670;2023-04-08T03:52:44;101937.88;;;6.14;100.00
55916;BME280;41826;53.246;-6.670;2023-04-08T03:55:09;101909.53;;;6.24;100.00
55916;BME280;41826;53.246;-6.670;2023-04-08T03:57:34;101951.91;;;6.12;100.00
55916;BME280;41826;53.246;-6.670;2023-04-08T04:00:00;101992.09;;;6.07;100.00
55916;BME280;41826;53.246;-6.670;2023-04-08T04:02:26;102012.81;;;6.11;100.00
55916;BME280;41826;53.246;-6.670;2023-04-08T04:04:51;102037.09;;;6.11;100.00
55916;BME280;41826;53.246;-6.670;2023-04-08T04:07:16;102059.03;;;5.90;100.00
55916;BME280;41826;53.246;-6.670;2023-04-08T04:09:42;102097.13;;;5.92;100.00
55916;BME280;41826;53.246;-6.670;2023-04-08T04:12:07;102116.31;;;5.91;100.00
55916;BME280;41826;53.246;-6.670;2023-04-08T04:14:32;102130.97;;;5.94;100.00
55916;BME280;41826;53.246;-6.670;2023-04-08T04:16:58;102121.22;;;5.97;100.00
55916;BME280;41826;53.246;-6.670;2023-04-08T04:19:23;102117.72;;;5.98;100.00
55916;BME280;41826;53.246;-6.670;2023-04-08T04:21:51;102114.78;;;5.87;100.00
55916;BME280;41826;53.246;-6.670;2023-04-08T04:24:17;102139.94;;;5.88;100.00
55916;BME280;41826;53.246;-6.670;2023-04-08T04:26:42;102147.91;;;5.85;100.00
55916;BME280;41826;53.246;-6.670;2023-04-08T04:29:08;102173.47;;;5.77;100.00
55916;BME280;41826;53.246;-6.670;2023-04-08T04:31:33;102184.22;;;5.88;100.00
55916;BME280;41826;53.246;-6.670;2023-04-08T04:33:58;102180.44;;;5.95;100.00
55916;BME280;41826;53.246;-6.670;2023-04-08T04:36:24;102145.47;;;5.99;100.00
55916;BME280;41826;53.246;-6.670;2023-04-08T04:38:49;102118.09;;;5.91;100.00
55916;BME280;41826;53.246;-6.670;2023-04-08T04:41:16;102132.72;;;5.76;100.00
55916;BME280;41826;53.246;-6.670;2023-04-08T04:43:41;102145.69;;;5.77;100.00
55916;BME280;41826;53.246;-6.670;2023-04-08T04:46:06;102152.19;;;5.69;100.00
55916;BME280;41826;53.246;-6.670;2023-04-08T04:48:33;102159.84;;;5.89;100.00
55916;BME280;41826;53.246;-6.670;2023-04-08T04:50:59;102090.13;;;5.94;100.00
55916;BME280;41826;53.246;-6.670;2023-04-08T04:53:25;101984.97;;;5.95;100.00
55916;BME280;41826;53.246;-6.670;2023-04-08T04:55:51;101937.72;;;5.84;100.00
55916;BME280;41826;53.246;-6.670;2023-04-08T04:58:16;102022.97;;;5.64;100.00
55916;BME280;41826;53.246;-6.670;2023-04-08T05:00:42;102017.72;;;5.66;100.00
55916;BME280;41826;53.246;-6.670;2023-04-08T05:03:08;102097.06;;;5.41;100.00
55916;BME280;41826;53.246;-6.670;2023-04-08T05:05:33;102113.94;;;5.52;100.00
55916;BME280;41826;53.246;-6.670;2023-04-08T05:07:59;102131.94;;;5.56;100.00
55916;BME280;41826;53.246;-6.670;2023-04-08T05:10:24;102134.69;;;5.53;100.00
55916;BME280;41826;53.246;-6.670;2023-04-08T05:12:50;102157.59;;;5.47;100.00
55916;BME280;41826;53.246;-6.670;2023-04-08T05:15:15;102174.09;;;5.64;100.00
55916;BME280;41826;53.246;-6.670;2023-04-08T05:17:41;102164.75;;;5.60;100.00
55916;BME280;41826;53.246;-6.670;2023-04-08T05:20:06;102173.78;;;5.53;100.00
55916;BME280;41826;53.246;-6.670;2023-04-08T05:22:32;102139.59;;;5.42;100.00
55916;BME280;41826;53.246;-6.670;2023-04-08T05:24:58;102164.72;;;5.43;100.00
55916;BME280;41826;53.246;-6.670;2023-04-08T05:27:23;102138.59;;;5.62;100.00
55916;BME280;41826;53.246;-6.670;2023-04-08T05:29:52;102106.22;;;5.68;100.00
55916;BME280;41826;53.246;-6.670;2023-04-08T05:32:17;102053.94;;;5.71;100.00
55916;BME280;41826;53.246;-6.670;2023-04-08T05:34:43;101984.13;;;5.77;100.00
55916;BME280;41826;53.246;-6.670;2023-04-08T05:37:08;101855.28;;;5.83;100.00
55916;BME280;41826;53.246;-6.670;2023-04-08T05:39:34;101885.97;;;5.78;100.00
55916;BME280;41826;53.246;-6.670;2023-04-08T05:41:59;101848.66;;;5.77;100.00
55916;BME280;41826;53.246;-6.670;2023-04-08T05:44:24;101780.47;;;5.85;100.00
55916;BME280;41826;53.246;-6.670;2023-04-08T05:46:50;101641.88;;;6.08;100.00
55916;BME280;41826;53.246;-6.670;2023-04-08T05:49:15;101506.06;;;6.13;100.00
55916;BME280;41826;53.246;-6.670;2023-04-08T05:51:41;101407.06;;;6.12;100.00
55916;BME280;41826;53.246;-6.670;2023-04-08T05:54:07;101301.16;;;6.11;100.00
55916;BME280;41826;53.246;-6.670;2023-04-08T05:56:32;101248.28;;;6.08;100.00
55916;BME280;41826;53.246;-6.670;2023-04-08T05:58:59;101186.66;;;6.07;100.00
55916;BME280;41826;53.246;-6.670;2023-04-08T06:01:24;101186.13;;;6.02;100.00
55916;BME280;41826;53.246;-6.670;2023-04-08T06:03:50;101132.75;;;5.95;100.00
55916;BME280;41826;53.246;-6.670;2023-04-08T06:06:17;101294.88;;;5.86;100.00
55916;BME280;41826;53.246;-6.670;2023-04-08T06:08:42;101381.25;;;5.80;100.00
55916;BME280;41826;53.246;-6.670;2023-04-08T06:11:08;101299.06;;;5.89;100.00
55916;BME280;41826;53.246;-6.670;2023-04-08T06:13:33;101388.53;;;5.60;100.00
55916;BME280;41826;53.246;-6.670;2023-04-08T06:16:09;101603.81;;;5.46;100.00
55916;BME280;41826;53.246;-6.670;2023-04-08T06:18:35;101679.84;;;5.36;100.00
55916;BME280;41826;53.246;-6.670;2023-04-08T06:21:00;101750.56;;;5.60;100.00
55916;BME280;41826;53.246;-6.670;2023-04-08T06:23:26;101772.66;;;5.69;100.00
55916;BME280;41826;53.246;-6.670;2023-04-08T06:25:52;101772.81;;;5.66;100.00
55916;BME280;41826;53.246;-6.670;2023-04-08T06:28:18;101797.53;;;5.75;100.00
55916;BME280;41826;53.246;-6.670;2023-04-08T06:30:43;101763.56;;;5.76;100.00
55916;BME280;41826;53.246;-6.670;2023-04-08T06:33:09;101771.91;;;5.83;100.00
55916;BME280;41826;53.246;-6.670;2023-04-08T06:35:34;101768.03;;;5.90;100.00
55916;BME280;41826;53.246;-6.670;2023-04-08T06:38:02;101735.47;;;5.97;100.00
55916;BME280;41826;53.246;-6.670;2023-04-08T06:40:27;101711.25;;;6.11;100.00
55916;BME280;41826;53.246;-6.670;2023-04-08T06:42:52;101640.94;;;6.10;100.00
55916;BME280;41826;53.246;-6.670;2023-04-08T06:45:18;101554.09;;;6.09;100.00
55916;BME280;41826;53.246;-6.670;2023-04-08T06:47:44;101516.56;;;6.12;100.00
55916;BME280;41826;53.246;-6.670;2023-04-08T06:50:09;101460.88;;;6.13;100.00
55916;BME280;41826;53.246;-6.670;2023-04-08T06:52:34;101495.69;;;6.26;100.00
55916;BME280;41826;53.246;-6.670;2023-04-08T06:55:00;101461.31;;;6.34;100.00
55916;BME280;41826;53.246;-6.670;2023-04-08T06:57:25;101388.00;;;6.38;100.00
55916;BME280;41826;53.246;-6.670;2023-04-08T06:59:51;101316.97;;;6.47;100.00
55916;BME280;41826;53.246;-6.670;2023-04-08T07:02:17;101231.22;;;6.56;100.00
55916;BME280;41826;53.246;-6.670;2023-04-08T07:04:43;101185.94;;;6.57;100.00
55916;BME280;41826;53.246;-6.670;2023-04-08T07:07:08;101158.69;;;6.61;100.00
55916;BME280;41826;53.246;-6.670;2023-04-08T07:09:34;101124.16;;;6.70;100.00
55916;BME280;41826;53.246;-6.670;2023-04-08T07:12:01;101076.25;;;6.71;100.00
55916;BME280;41826;53.246;-6.670;2023-04-08T07:14:27;101049.81;;;6.76;100.00
55916;BME280;41826;53.246;-6.670;2023-04-08T07:16:54;101050.56;;;6.78;100.00
55916;BME280;41826;53.246;-6.670;2023-04-08T07:19:20;101308.66;;;6.68;100.00
55916;BME280;41826;53.246;-6.670;2023-04-08T07:21:46;101533.56;;;6.73;100.00
55916;BME280;41826;53.246;-6.670;2023-04-08T07:24:12;101595.66;;;7.09;100.00
55916;BME280;41826;53.246;-6.670;2023-04-08T07:26:37;101617.56;;;7.07;100.00
55916;BME280;41826;53.246;-6.670;2023-04-08T07:29:03;101621.28;;;7.17;100.00
55916;BME280;41826;53.246;-6.670;2023-04-08T07:31:28;101640.75;;;7.78;100.00
55916;BME280;41826;53.246;-6.670;2023-04-08T07:33:53;101561.50;;;8.03;100.00
55916;BME280;41826;53.246;-6.670;2023-04-08T07:36:19;101514.94;;;8.21;100.00
55916;BME280;41826;53.246;-6.670;2023-04-08T07:38:45;101429.28;;;8.49;100.00
55916;BME280;41826;53.246;-6.670;2023-04-08T07:41:10;101379.38;;;8.63;100.00
55916;BME280;41826;53.246;-6.670;2023-04-08T07:43:36;101307.66;;;8.66;100.00
55916;BME280;41826;53.246;-6.670;2023-04-08T07:46:02;101278.28;;;8.74;100.00
55916;BME280;41826;53.246;-6.670;2023-04-08T07:48:29;101242.81;;;9.03;100.00
55916;BME280;41826;53.246;-6.670;2023-04-08T07:50:55;101169.63;;;9.34;100.00
55916;BME280;41826;53.246;-6.670;2023-04-08T07:53:20;101043.75;;;9.57;100.00
55916;BME280;41826;53.246;-6.670;2023-04-08T07:55:47;100946.00;;;9.66;100.00
55916;BME280;41826;53.246;-6.670;2023-04-08T07:58:13;100751.88;;;9.58;100.00
55916;BME280;41826;53.246;-6.670;2023-04-08T08:00:38;100608.28;;;9.51;100.00
55916;BME280;41826;53.246;-6.670;2023-04-08T08:03:05;100714.38;;;9.57;100.00
55916;BME280;41826;53.246;-6.670;2023-04-08T08:05:30;100820.13;;;9.46;100.00
55916;BME280;41826;53.246;-6.670;2023-04-08T08:07:55;100897.75;;;9.78;100.00
55916;BME280;41826;53.246;-6.670;2023-04-08T08:10:21;100886.22;;;9.90;100.00
55916;BME280;41826;53.246;-6.670;2023-04-08T08:12:46;100858.31;;;9.89;100.00
55916;BME280;41826;53.246;-6.670;2023-04-08T08:15:12;100777.97;;;9.69;100.00
55916;BME280;41826;53.246;-6.670;2023-04-08T08:17:37;100810.53;;;9.76;100.00
55916;BME280;41826;53.246;-6.670;2023-04-08T08:20:03;100753.00;;;9.84;100.00
55916;BME280;41826;53.246;-6.670;2023-04-08T08:22:29;100686.34;;;10.16;100.00
55916;BME280;41826;53.246;-6.670;2023-04-08T08:24:57;100538.19;;;10.48;100.00
55916;BME280;41826;53.246;-6.670;2023-04-08T08:27:24;100403.84;;;10.44;100.00
55916;BME280;41826;53.246;-6.670;2023-04-08T08:29:50;100359.44;;;10.51;100.00
55916;BME280;41826;53.246;-6.670;2023-04-08T08:32:15;100336.84;;;10.58;100.00
55916;BME280;41826;53.246;-6.670;2023-04-08T08:34:41;100295.16;;;10.55;100.00
55916;BME280;41826;53.246;-6.670;2023-04-08T08:37:06;100317.25;;;10.70;100.00
55916;BME280;41826;53.246;-6.670;2023-04-08T08:39:32;100409.13;;;10.70;100.00
55916;BME280;41826;53.246;-6.670;2023-04-08T08:41:57;100484.91;;;10.65;100.00
55916;BME280;41826;53.246;-6.670;2023-04-08T08:44:23;100527.28;;;10.70;100.00
55916;BME280;41826;53.246;-6.670;2023-04-08T08:46:48;100553.53;;;10.70;100.00
55916;BME280;41826;53.246;-6.670;2023-04-08T08:49:14;100570.97;;;10.71;100.00
55916;BME280;41826;53.246;-6.670;2023-04-08T08:51:40;100592.19;;;10.78;100.00
55916;BME280;41826;53.246;-6.670;2023-04-08T08:54:08;100613.44;;;10.84;100.00
55916;BME280;41826;53.246;-6.670;2023-04-08T08:56:34;100635.31;;;10.75;100.00
55916;BME280;41826;53.246;-6.670;2023-04-08T08:58:59;100639.88;;;11.01;100.00
55916;BME280;41826;53.246;-6.670;2023-04-08T09:01:35;100659.31;;;11.08;100.00
55916;BME280;41826;53.246;-6.670;2023-04-08T09:06:40;100668.88;;;11.09;100.00
55916;BME280;41826;53.246;-6.670;2023-04-08T09:09:06;100673.00;;;11.12;100.00
55916;BME280;41826;53.246;-6.670;2023-04-08T09:11:39;100686.59;;;11.07;100.00
55916;BME280;41826;53.246;-6.670;2023-04-08T09:14:22;100683.78;;;11.09;100.00
55916;BME280;41826;53.246;-6.670;2023-04-08T09:16:49;100696.75;;;10.92;100.00
55916;BME280;41826;53.246;-6.670;2023-04-08T09:19:15;100702.69;;;10.94;100.00
55916;BME280;41826;53.246;-6.670;2023-04-08T09:21:40;100704.19;;;11.24;100.00
55916;BME280;41826;53.246;-6.670;2023-04-08T09:24:07;100704.69;;;11.28;100.00
55916;BME280;41826;53.246;-6.670;2023-04-08T09:26:34;100709.22;;;11.36;100.00
55916;BME280;41826;53.246;-6.670;2023-04-08T09:29:08;100723.19;;;11.36;100.00
55916;BME280;41826;53.246;-6.670;2023-04-08T09:31:35;100720.88;;;11.51;100.00
55916;BME280;41826;53.246;-6.670;2023-04-08T09:34:13;100733.88;;;11.53;100.00
55916;BME280;41826;53.246;-6.670;2023-04-08T09:36:40;100745.69;;;11.66;100.00
55916;BME280;41826;53.246;-6.670;2023-04-08T09:39:06;100756.38;;;11.65;100.00
55916;BME280;41826;53.246;-6.670;2023-04-08T09:41:36;100764.88;;;11.95;100.00
55916;BME280;41826;53.246;-6.670;2023-04-08T09:44:06;100770.97;;;12.31;100.00
55916;BME280;41826;53.246;-6.670;2023-04-08T09:46:35;100790.16;;;12.49;100.00
55916;BME280;41826;53.246;-6.670;2023-04-08T09:49:11;100827.94;;;12.40;100.00
55916;BME280;41826;53.246;-6.670;2023-04-08T09:52:02;100837.44;;;12.51;100.00
55916;BME280;41826;53.246;-6.670;2023-04-08T09:57:09;100821.59;;;12.95;100.00
55916;BME280;41826;53.246;-6.670;2023-04-08T09:59:42;100825.72;;;12.97;100.00
55916;BME280;41826;53.246;-6.670;2023-04-08T10:02:10;100844.16;;;12.97;100.00
55916;BME280;41826;53.246;-6.670;2023-04-08T10:04:38;100875.78;;;12.97;100.00
55916;BME280;41826;53.246;-6.670;2023-04-08T10:07:07;100870.78;;;13.12;100.00
55916;BME280;41826;53.246;-6.670;2023-04-08T10:09:33;100900.53;;;13.05;100.00
55916;BME280;41826;53.246;-6.670;2023-04-08T10:12:00;100891.09;;;13.20;100.00
55916;BME280;41826;53.246;-6.670;2023-04-08T10:14:26;100909.38;;;13.21;100.00
55916;BME280;41826;53.246;-6.670;2023-04-08T10:17:25;100884.78;;;13.39;100.00
55916;BME280;41826;53.246;-6.670;2023-04-08T10:19:52;100953.63;;;13.28;100.00
55916;BME280;41826;53.246;-6.670;2023-04-08T10:27:43;100963.75;;;13.40;100.00
55916;BME280;41826;53.246;-6.670;2023-04-08T10:32:56;100971.91;;;13.29;100.00
55916;BME280;41826;53.246;-6.670;2023-04-08T10:35:36;100963.75;;;13.40;100.00
55916;BME280;41826;53.246;-6.670;2023-04-08T10:38:02;100942.53;;;13.50;100.00
55916;BME280;41826;53.246;-6.670;2023-04-08T10:40:28;100922.59;;;13.48;100.00
55916;BME280;41826;53.246;-6.670;2023-04-08T10:43:00;100920.81;;;13.56;100.00
55916;BME280;41826;53.246;-6.670;2023-04-08T10:45:26;100923.59;;;13.02;100.00
55916;BME280;41826;53.246;-6.670;2023-04-08T10:47:51;100896.00;;;13.15;100.00
55916;BME280;41826;53.246;-6.670;2023-04-08T10:50:18;100906.53;;;13.15;100.00
55916;BME280;41826;53.246;-6.670;2023-04-08T10:52:52;100888.13;;;13.23;100.00
55916;BME280;41826;53.246;-6.670;2023-04-08T10:55:23;100868.78;;;13.32;100.00
55916;BME280;41826;53.246;-6.670;2023-04-08T10:57:52;100858.97;;;13.51;100.00
55916;BME280;41826;53.246;-6.670;2023-04-08T11:00:19;100849.09;;;13.53;100.00
55916;BME280;41826;53.246;-6.670;2023-04-08T11:02:59;100885.28;;;13.34;100.00
55916;BME280;41826;53.246;-6.670;2023-04-08T11:05:25;100885.66;;;13.48;100.00
55916;BME280;41826;53.246;-6.670;2023-04-08T11:07:51;100879.75;;;13.54;100.00
55916;BME280;41826;53.246;-6.670;2023-04-08T11:10:17;100879.81;;;13.70;100.00
55916;BME280;41826;53.246;-6.670;2023-04-08T11:12:43;100903.84;;;13.59;100.00
55916;BME280;41826;53.246;-6.670;2023-04-08T11:15:09;100879.41;;;13.57;100.00
55916;BME280;41826;53.246;-6.670;2023-04-08T11:17:35;100904.75;;;13.76;100.00
55916;BME280;41826;53.246;-6.670;2023-04-08T11:20:01;100850.84;;;13.95;100.00
55916;BME280;41826;53.246;-6.670;2023-04-08T11:22:30;100845.63;;;14.11;100.00
55916;BME280;41826;53.246;-6.670;2023-04-08T11:24:58;100893.13;;;14.11;100.00
55916;BME280;41826;53.246;-6.670;2023-04-08T11:27:24;100878.94;;;14.12;100.00
55916;BME280;41826;53.246;-6.670;2023-04-08T11:29:52;100885.88;;;14.13;100.00
55916;BME280;41826;53.246;-6.670;2023-04-08T11:32:21;100882.59;;;14.27;100.00
55916;BME280;41826;53.246;-6.670;2023-04-08T11:34:48;100884.59;;;14.34;100.00
55916;BME280;41826;53.246;-6.670;2023-04-08T11:37:14;100883.97;;;14.64;100.00
55916;BME280;41826;53.246;-6.670;2023-04-08T11:39:44;100875.88;;;14.74;100.00
55916;BME280;41826;53.246;-6.670;2023-04-08T11:42:29;100860.84;;;14.83;100.00
55916;BME280;41826;53.246;-6.670;2023-04-08T11:44:55;100883.31;;;14.79;100.00
55916;BME280;41826;53.246;-6.670;2023-04-08T11:47:21;100903.41;;;14.47;100.00
55916;BME280;41826;53.246;-6.670;2023-04-08T11:49:47;100890.88;;;14.49;100.00
55916;BME280;41826;53.246;-6.670;2023-04-08T11:52:13;100883.13;;;14.31;100.00
55916;BME280;41826;53.246;-6.670;2023-04-08T11:54:42;100840.38;;;14.36;100.00
55916;BME280;41826;53.246;-6.670;2023-04-08T11:57:08;100827.84;;;14.54;100.00
55916;BME280;41826;53.246;-6.670;2023-04-08T11:59:37;100834.44;;;14.58;100.00
55916;BME280;41826;53.246;-6.670;2023-04-08T12:02:03;100829.63;;;14.78;100.00
55916;BME280;41826;53.246;-6.670;2023-04-08T12:04:28;100844.50;;;14.79;100.00
55916;BME280;41826;53.246;-6.670;2023-04-08T12:06:55;100826.66;;;14.48;100.00
55916;BME280;41826;53.246;-6.670;2023-04-08T12:09:20;100811.50;;;14.59;100.00
55916;BME280;41826;53.246;-6.670;2023-04-08T12:11:46;100815.59;;;14.37;100.00
55916;BME280;41826;53.246;-6.670;2023-04-08T12:14:12;100798.75;;;14.38;100.00
55916;BME280;41826;53.246;-6.670;2023-04-08T12:16:37;100784.75;;;14.54;100.00
55916;BME280;41826;53.246;-6.670;2023-04-08T12:19:03;100779.94;;;14.49;100.00
55916;BME280;41826;53.246;-6.670;2023-04-08T12:21:28;100771.38;;;14.30;100.00
55916;BME280;41826;53.246;-6.670;2023-04-08T12:23:53;100768.22;;;14.60;100.00
55916;BME280;41826;53.246;-6.670;2023-04-08T12:26:19;100764.91;;;14.58;100.00
55916;BME280;41826;53.246;-6.670;2023-04-08T12:28:45;100761.47;;;14.57;100.00
55916;BME280;41826;53.246;-6.670;2023-04-08T12:31:11;100754.31;;;14.66;100.00
55916;BME280;41826;53.246;-6.670;2023-04-08T12:33:36;100756.19;;;14.57;100.00
55916;BME280;41826;53.246;-6.670;2023-04-08T12:36:02;100744.28;;;14.20;100.00
55916;BME280;41826;53.246;-6.670;2023-04-08T12:38:27;100722.63;;;14.66;100.00
55916;BME280;41826;53.246;-6.670;2023-04-08T12:40:53;100717.56;;;14.23;100.00
55916;BME280;41826;53.246;-6.670;2023-04-08T12:43:18;100700.69;;;14.49;100.00
55916;BME280;41826;53.246;-6.670;2023-04-08T12:45:45;100716.03;;;14.62;100.00
55916;BME280;41826;53.246;-6.670;2023-04-08T12:48:10;100716.06;;;14.29;100.00
55916;BME280;41826;53.246;-6.670;2023-04-08T12:50:36;100699.38;;;14.37;100.00
55916;BME280;41826;53.246;-6.670;2023-04-08T12:53:01;100708.00;;;14.22;100.00
55916;BME280;41826;53.246;-6.670;2023-04-08T12:55:27;100705.63;;;14.52;100.00